createdAt,value
2023-02-22T00:00:48.140Z,99246.25
2023-02-22T00:03:27.144Z,99243.03
2023-02-22T00:05:58.066Z,99244.22
2023-02-22T00:08:30.429Z,99236.16
2023-02-22T00:11:02.150Z,99235.28
2023-02-22T00:13:29.567Z,99240.50
2023-02-22T00:15:57.662Z,99239.69
2023-02-22T00:18:24.700Z,99237.56
2023-02-22T00:20:51.359Z,99243.47
2023-02-22T00:23:21.018Z,99245.53
2023-02-22T00:25:49.035Z,99245.75
2023-02-22T00:28:17.038Z,99245.16
2023-02-22T00:30:43.778Z,99243.59
2023-02-22T00:33:12.005Z,99246.38
2023-02-22T00:35:38.708Z,99244.22
2023-02-22T00:38:05.744Z,99243.28
2023-02-22T00:40:34.702Z,99233.91
2023-02-22T00:43:03.051Z,99243.75
2023-02-22T00:45:31.268Z,99236.75
2023-02-22T00:47:58.496Z,99238.91
2023-02-22T00:50:26.899Z,99234.38
2023-02-22T00:52:54.108Z,99234.25
2023-02-22T00:55:26.451Z,99232.88
2023-02-22T00:57:53.374Z,99232.59
2023-02-22T01:00:28.798Z,99228.47
2023-02-22T01:02:56.785Z,99222.28
2023-02-22T01:05:26.405Z,99228.13
2023-02-22T01:07:53.622Z,99219.63
2023-02-22T01:10:21.821Z,99211.44
2023-02-22T01:12:49.903Z,99215.69
2023-02-22T01:15:20.698Z,99207.53
2023-02-22T01:17:47.716Z,99215.50
2023-02-22T01:20:14.773Z,99209.25
2023-02-22T01:22:47.755Z,99204.66
2023-02-22T01:25:26.115Z,99208.63
2023-02-22T01:27:53.323Z,99197.34
2023-02-22T01:30:26.247Z,99200.25
2023-02-22T01:32:53.122Z,99198.25
2023-02-22T01:35:22.675Z,99204.59
2023-02-22T01:37:49.088Z,99206.31
2023-02-22T01:40:20.355Z,99204.06
2023-02-22T01:42:55.172Z,99199.69
2023-02-22T01:45:35.889Z,99200.31
2023-02-22T01:48:09.471Z,99200.97
2023-02-22T01:50:39.629Z,99196.56
2023-02-22T01:53:06.725Z,99193.63
2023-02-22T01:55:34.712Z,99195.03
2023-02-22T01:58:02.091Z,99193.78
2023-02-22T02:00:28.708Z,99194.53
2023-02-22T02:03:00.055Z,99191.72
2023-02-22T02:05:31.278Z,99189.75
2023-02-22T02:07:58.655Z,99195.56
2023-02-22T02:10:26.536Z,99192.28
2023-02-22T02:12:53.422Z,99203.16
2023-02-22T02:15:26.006Z,99188.88
2023-02-22T02:17:54.297Z,99187.13
2023-02-22T02:20:28.276Z,99182.44
2023-02-22T02:23:13.367Z,99174.84
2023-02-22T02:25:56.536Z,99174.38
2023-02-22T02:28:41.392Z,99175.59
2023-02-22T02:31:26.552Z,99166.50
2023-02-22T02:33:55.970Z,99164.97
2023-02-22T02:36:48.635Z,99162.47
2023-02-22T02:39:51.518Z,99158.41
2023-02-22T02:42:22.235Z,99151.56
2023-02-22T02:45:11.798Z,99149.53
2023-02-22T02:47:42.670Z,99147.69
2023-02-22T02:50:31.674Z,99145.22
2023-02-22T02:53:01.439Z,99148.81
2023-02-22T02:55:29.512Z,99147.56
2023-02-22T02:57:56.084Z,99146.56
2023-02-22T03:00:25.316Z,99142.22
2023-02-22T03:02:59.533Z,99134.91
2023-02-22T03:05:36.846Z,99137.84
2023-02-22T03:08:13.194Z,99138.38
2023-02-22T03:10:50.313Z,99141.16
2023-02-22T03:13:27.817Z,99129.13
2023-02-22T03:16:19.178Z,99130.63
2023-02-22T03:19:13.767Z,99132.31
2023-02-22T03:21:52.558Z,99124.06
2023-02-22T03:24:25.882Z,99124.06
2023-02-22T03:26:58.949Z,99125.84
2023-02-22T03:29:27.591Z,99123.28
2023-02-22T03:32:01.917Z,99121.81
2023-02-22T03:34:34.134Z,99124.63
2023-02-22T03:37:08.611Z,99134.78
2023-02-22T03:39:36.474Z,99131.50
2023-02-22T03:42:14.134Z,99129.72
2023-02-22T03:44:43.936Z,99128.34
2023-02-22T03:47:14.362Z,99131.50
2023-02-22T03:49:48.006Z,99133.00
2023-02-22T03:52:14.474Z,99130.50
2023-02-22T03:54:41.185Z,99124.69
2023-02-22T03:57:23.849Z,99123.91
2023-02-22T03:59:53.139Z,99119.22
2023-02-22T04:02:19.571Z,99110.16
2023-02-22T04:04:47.049Z,99118.22
2023-02-22T04:07:13.547Z,99117.31
2023-02-22T04:09:39.973Z,99113.28
2023-02-22T04:12:06.825Z,99115.69
2023-02-22T04:14:33.215Z,99117.84
2023-02-22T04:17:00.069Z,99115.06
2023-02-22T04:19:26.538Z,99104.69
2023-02-22T04:21:52.979Z,99108.88
2023-02-22T04:24:19.383Z,99108.00
2023-02-22T04:26:45.942Z,99104.56
2023-02-22T04:29:12.644Z,99110.75
2023-02-22T04:31:39.128Z,99102.84
2023-02-22T04:34:06.137Z,99103.69
2023-02-22T04:36:32.589Z,99103.97
2023-02-22T04:38:59.560Z,99101.81
2023-02-22T04:41:26.074Z,99106.50
2023-02-22T04:43:52.646Z,99113.53
2023-02-22T04:46:19.825Z,99104.72
2023-02-22T04:48:46.285Z,99105.84
2023-02-22T04:51:13.048Z,99106.13
2023-02-22T04:53:39.437Z,99109.16
2023-02-22T04:56:06.362Z,99107.03
2023-02-22T04:58:32.753Z,99099.69
2023-02-22T05:01:00.586Z,99102.84
2023-02-22T05:03:27.040Z,99098.03
2023-02-22T05:05:53.449Z,99097.91
2023-02-22T05:08:19.879Z,99094.38
2023-02-22T05:10:46.335Z,99103.97
2023-02-22T05:13:12.807Z,99100.91
2023-02-22T05:15:39.216Z,99103.97
2023-02-22T05:18:05.767Z,99099.69
2023-02-22T05:20:35.745Z,99096.13
2023-02-22T05:23:03.446Z,99103.88
2023-02-22T05:25:29.856Z,99102.72
2023-02-22T05:28:00.241Z,99106.41
2023-02-22T05:30:30.248Z,99098.91
2023-02-22T05:32:56.746Z,99097.69
2023-02-22T05:35:23.523Z,99096.28
2023-02-22T05:37:50.835Z,99096.03
2023-02-22T05:40:19.213Z,99097.16
2023-02-22T05:42:48.139Z,99101.97
2023-02-22T05:45:17.233Z,99095.41
2023-02-22T05:47:44.157Z,99097.44
2023-02-22T05:50:10.825Z,99092.00
2023-02-22T05:52:38.517Z,99092.38
2023-02-22T05:55:09.622Z,99091.88
2023-02-22T05:57:36.072Z,99090.50
2023-02-22T06:00:06.927Z,99082.13
2023-02-22T06:02:33.983Z,99081.63
2023-02-22T06:05:00.484Z,99081.78
2023-02-22T06:07:27.225Z,99075.94
2023-02-22T06:09:53.830Z,99079.09
2023-02-22T06:12:20.360Z,99081.25
2023-02-22T06:14:47.011Z,99085.81
2023-02-22T06:17:14.846Z,99087.94
2023-02-22T06:19:41.450Z,99086.69
2023-02-22T06:22:08.612Z,99092.41
2023-02-22T06:24:38.590Z,99091.50
2023-02-22T06:27:05.029Z,99090.63
2023-02-22T06:29:31.472Z,99088.34
2023-02-22T06:31:57.924Z,99089.72
2023-02-22T06:34:24.414Z,99092.41
2023-02-22T06:36:50.913Z,99097.94
2023-02-22T06:39:18.889Z,99094.78
2023-02-22T06:41:46.509Z,99095.28
2023-02-22T06:44:14.512Z,99098.44
2023-02-22T06:46:51.025Z,99095.66
2023-02-22T06:49:18.444Z,99100.97
2023-02-22T06:51:45.385Z,99112.59
2023-02-22T06:54:11.930Z,99102.13
2023-02-22T06:56:38.508Z,99108.31
2023-02-22T06:59:04.947Z,99105.53
2023-02-22T07:01:31.373Z,99111.31
2023-02-22T07:03:57.814Z,99108.03
2023-02-22T07:06:24.226Z,99108.69
2023-02-22T07:08:50.687Z,99113.09
2023-02-22T07:11:18.157Z,99116.88
2023-02-22T07:13:44.743Z,99112.69
2023-02-22T07:16:11.160Z,99119.69
2023-02-22T07:18:38.595Z,99115.38
2023-02-22T07:21:05.243Z,99122.94
2023-02-22T07:23:31.681Z,99113.72
2023-02-22T07:26:00.392Z,99122.69
2023-02-22T07:28:26.941Z,99118.25
2023-02-22T07:30:53.476Z,99111.56
2023-02-22T07:33:20.081Z,99123.06
2023-02-22T07:35:48.370Z,99122.66
2023-02-22T07:38:16.488Z,99123.38
2023-02-22T07:40:43.759Z,99125.88
2023-02-22T07:43:17.782Z,99126.78
2023-02-22T07:45:44.624Z,99123.22
2023-02-22T07:48:12.571Z,99121.81
2023-02-22T07:50:39.654Z,99130.06
2023-02-22T07:53:12.281Z,99121.56
2023-02-22T07:55:38.840Z,99133.19
2023-02-22T07:58:07.414Z,99118.03
2023-02-22T08:00:41.750Z,99122.28
2023-02-22T08:03:13.499Z,99111.16
2023-02-22T08:05:42.136Z,99114.66
2023-02-22T08:08:10.102Z,99111.16
2023-02-22T08:10:36.687Z,99112.38
2023-02-22T08:13:05.247Z,99103.22
2023-02-22T08:15:39.830Z,99106.00
2023-02-22T08:18:11.693Z,99101.00
2023-02-22T08:20:40.766Z,99098.34
2023-02-22T08:23:08.021Z,99101.56
2023-02-22T08:25:34.911Z,99097.63
2023-02-22T08:28:07.003Z,99093.38
2023-02-22T08:30:35.016Z,99095.16
2023-02-22T08:33:03.016Z,99095.63
2023-02-22T08:35:30.700Z,99097.84
2023-02-22T08:37:59.920Z,99097.00
2023-02-22T08:40:28.822Z,99091.66
2023-02-22T08:42:55.286Z,99089.16
2023-02-22T08:45:21.737Z,99086.28
2023-02-22T08:47:48.454Z,99096.22
2023-02-22T08:50:21.809Z,99087.06
2023-02-22T08:52:51.120Z,99083.69
2023-02-22T08:55:20.477Z,99087.34
2023-02-22T08:57:46.911Z,99085.03
2023-02-22T09:00:13.933Z,99077.31
2023-02-22T09:02:41.501Z,99077.00
2023-02-22T09:05:08.188Z,99080.84
2023-02-22T09:07:34.561Z,99077.09
2023-02-22T09:10:01.003Z,99071.97
2023-02-22T09:12:27.620Z,99076.38
2023-02-22T09:14:54.042Z,99068.38
2023-02-22T09:17:20.442Z,99070.00
2023-02-22T09:19:46.843Z,99074.41
2023-02-22T09:22:13.273Z,99066.97
2023-02-22T09:24:39.697Z,99071.00
2023-02-22T09:27:07.390Z,99064.00
2023-02-22T09:29:33.808Z,99060.50
2023-02-22T09:32:00.399Z,99066.03
2023-02-22T09:34:29.662Z,99064.63
2023-02-22T09:36:57.514Z,99060.63
2023-02-22T09:39:24.457Z,99058.41
2023-02-22T09:42:06.475Z,99055.66
2023-02-22T09:45:12.781Z,99050.84
2023-02-22T09:47:42.368Z,99049.16
2023-02-22T09:50:15.792Z,99059.25
2023-02-22T09:53:04.209Z,99048.06
2023-02-22T09:55:43.199Z,99046.88
2023-02-22T09:58:33.374Z,99049.78
2023-02-22T10:01:14.373Z,99049.38
2023-02-22T10:03:51.176Z,99042.84
2023-02-22T10:06:21.621Z,99048.94
2023-02-22T10:08:50.070Z,99048.88
2023-02-22T10:11:28.620Z,99036.75
2023-02-22T10:14:08.552Z,99039.13
2023-02-22T10:16:43.941Z,99044.31
2023-02-22T10:19:34.829Z,99037.94
2023-02-22T10:22:37.378Z,99026.56
2023-02-22T10:25:12.803Z,99032.81
2023-02-22T10:27:47.810Z,99035.13
2023-02-22T10:30:24.955Z,99030.78
2023-02-22T10:33:13.044Z,99033.44
2023-02-22T10:35:41.214Z,99027.97
2023-02-22T10:38:14.874Z,99037.09
2023-02-22T10:40:44.564Z,99031.22
2023-02-22T10:43:11.559Z,99033.91
2023-02-22T10:45:38.516Z,99030.72
2023-02-22T10:48:11.682Z,99020.31
2023-02-22T10:50:40.835Z,99021.16
2023-02-22T10:53:08.462Z,99022.66
2023-02-22T10:55:35.004Z,99015.75
2023-02-22T10:58:08.373Z,99025.38
2023-02-22T11:00:37.807Z,99023.47
2023-02-22T11:03:06.162Z,99019.13
2023-02-22T11:05:40.843Z,99028.00
2023-02-22T11:08:16.726Z,99031.09
2023-02-22T11:10:43.386Z,99023.72
2023-02-22T11:13:30.873Z,99030.22
2023-02-22T11:16:03.284Z,99021.72
2023-02-22T11:18:34.056Z,99029.75
2023-02-22T11:21:10.216Z,99027.41
2023-02-22T11:23:37.562Z,99028.56
2023-02-22T11:26:10.372Z,99026.38
2023-02-22T11:28:49.079Z,99020.50
2023-02-22T11:31:21.615Z,99013.16
2023-02-22T11:36:43.150Z,99008.34
2023-02-22T11:39:23.138Z,99007.81
2023-02-22T11:41:49.997Z,99005.84
2023-02-22T11:44:30.998Z,99006.66
2023-02-22T11:47:02.815Z,99004.69
2023-02-22T11:49:58.594Z,99014.63
2023-02-22T11:52:36.870Z,99004.19
2023-02-22T11:55:42.264Z,98998.13
2023-02-22T11:58:34.280Z,98993.25
2023-02-22T12:01:32.569Z,99002.16
2023-02-22T12:04:23.700Z,98992.13
2023-02-22T12:07:17.827Z,98996.91
2023-02-22T12:09:56.497Z,98997.31
2023-02-22T12:12:35.467Z,98998.94
2023-02-22T12:15:20.816Z,98986.75
2023-02-22T12:18:20.683Z,98982.72
2023-02-22T12:20:54.965Z,98979.91
2023-02-22T12:23:45.735Z,98979.31
2023-02-22T12:26:26.083Z,98974.72
2023-02-22T12:29:21.751Z,98972.44
2023-02-22T12:32:02.338Z,98979.63
2023-02-22T12:34:35.855Z,98971.53
2023-02-22T12:37:16.448Z,98975.84
2023-02-22T12:39:54.404Z,98978.50
2023-02-22T12:42:33.058Z,98969.25
2023-02-22T12:45:07.852Z,98974.03
2023-02-22T12:47:42.749Z,98973.09
2023-02-22T12:50:23.230Z,98970.41
2023-02-22T12:52:55.562Z,98964.69
2023-02-22T12:55:23.734Z,98969.75
2023-02-22T12:58:18.201Z,98966.28
2023-02-22T13:01:20.001Z,98963.22
2023-02-22T13:03:46.829Z,98962.28
2023-02-22T13:06:32.835Z,98971.09
2023-02-22T13:09:38.412Z,98960.91
2023-02-22T13:12:12.617Z,98964.63
2023-02-22T13:14:45.164Z,98962.91
2023-02-22T13:17:36.521Z,98966.38
2023-02-22T13:20:18.395Z,98959.03
2023-02-22T13:22:52.313Z,98954.00
2023-02-22T13:25:37.130Z,98948.22
2023-02-22T13:28:15.161Z,98944.91
2023-02-22T13:30:53.237Z,98945.53
2023-02-22T13:33:23.267Z,98944.19
2023-02-22T13:36:18.305Z,98940.22
2023-02-22T13:39:09.000Z,98935.50
2023-02-22T13:41:51.344Z,98935.63
2023-02-22T13:44:57.182Z,98935.03
2023-02-22T13:47:42.437Z,98933.56
2023-02-22T13:50:29.759Z,98934.13
2023-02-22T13:52:58.180Z,98935.97
2023-02-22T13:55:28.166Z,98931.00
2023-02-22T13:58:02.447Z,98932.44
2023-02-22T14:00:45.702Z,98939.63
2023-02-22T14:03:15.258Z,98936.19
2023-02-22T14:05:42.110Z,98933.38
2023-02-22T14:08:28.896Z,98938.25
2023-02-22T14:10:59.200Z,98934.59
2023-02-22T14:13:27.497Z,98935.41
2023-02-22T14:16:17.810Z,98934.59
2023-02-22T14:18:47.313Z,98946.34
2023-02-22T14:21:20.191Z,98941.88
2023-02-22T14:23:54.363Z,98946.94
2023-02-22T14:26:29.700Z,98941.72
2023-02-22T14:28:59.799Z,98939.94
2023-02-22T14:31:36.437Z,98942.34
2023-02-22T14:34:11.910Z,98942.16
2023-02-22T14:36:47.490Z,98937.69
2023-02-22T14:39:18.925Z,98941.94
2023-02-22T14:42:14.694Z,98940.28
2023-02-22T14:45:10.167Z,98935.84
2023-02-22T14:48:03.916Z,98935.56
2023-02-22T14:50:45.021Z,98938.00
2023-02-22T14:53:11.370Z,98938.00
2023-02-22T14:55:41.819Z,98934.50
2023-02-22T14:58:13.355Z,98938.00
2023-02-22T15:00:45.775Z,98940.97
2023-02-22T15:03:37.105Z,98939.06
2023-02-22T15:06:05.508Z,98934.91
2023-02-22T15:08:34.104Z,98938.34
2023-02-22T15:11:02.250Z,98944.16
2023-02-22T15:13:33.030Z,98936.44
2023-02-22T15:16:02.250Z,98937.25
2023-02-22T15:18:41.346Z,98938.78
2023-02-22T15:21:13.100Z,98938.78
2023-02-22T15:23:42.935Z,98930.13
2023-02-22T15:26:23.131Z,98934.41
2023-02-22T15:28:59.783Z,98931.75
2023-02-22T15:31:30.803Z,98933.41
2023-02-22T15:33:57.529Z,98935.13
2023-02-22T15:36:32.380Z,98932.25
2023-02-22T15:38:58.774Z,98931.44
2023-02-22T15:41:29.314Z,98929.81
2023-02-22T15:44:01.784Z,98932.41
2023-02-22T15:46:30.393Z,98937.38
2023-02-22T15:49:15.113Z,98933.91
2023-02-22T15:51:42.741Z,98926.19
2023-02-22T15:54:13.296Z,98931.44
2023-02-22T15:56:51.501Z,98931.22
2023-02-22T15:59:18.728Z,98933.03
2023-02-22T16:01:47.131Z,98934.84
2023-02-22T16:04:20.043Z,98935.78
2023-02-22T16:06:47.519Z,98934.72
2023-02-22T16:09:22.976Z,98935.59
2023-02-22T16:11:49.654Z,98941.19
2023-02-22T16:14:42.600Z,98940.44
2023-02-22T16:17:24.653Z,98942.94
2023-02-22T16:19:52.623Z,98934.41
2023-02-22T16:22:33.747Z,98939.44
2023-02-22T16:25:24.848Z,98941.84
2023-02-22T16:27:52.755Z,98936.78
2023-02-22T16:30:24.737Z,98940.06
2023-02-22T16:32:53.827Z,98935.69
2023-02-22T16:35:20.608Z,98937.38
2023-02-22T16:37:48.651Z,98938.34
2023-02-22T16:40:24.772Z,98941.31
2023-02-22T16:42:51.543Z,98943.38
2023-02-22T16:45:19.690Z,98948.44
2023-02-22T16:47:46.215Z,98944.00
2023-02-22T16:50:13.840Z,98948.38
2023-02-22T16:52:40.598Z,98946.75
2023-02-22T16:55:12.901Z,98943.47
2023-02-22T16:57:40.845Z,98941.66
2023-02-22T17:00:13.593Z,98949.03
2023-02-22T17:02:40.113Z,98949.25
2023-02-22T17:05:07.869Z,98949.25
2023-02-22T17:07:34.367Z,98952.53
2023-02-22T17:10:00.846Z,98951.56
2023-02-22T17:12:29.210Z,98955.00
2023-02-22T17:14:55.758Z,98950.41
2023-02-22T17:17:22.198Z,98969.34
2023-02-22T17:19:48.621Z,98957.31
2023-02-22T17:22:20.142Z,98957.38
2023-02-22T17:24:46.891Z,98954.84
2023-02-22T17:27:13.539Z,98960.47
2023-02-22T17:29:45.020Z,98966.72
2023-02-22T17:32:12.364Z,98962.34
2023-02-22T17:34:38.780Z,98967.47
2023-02-22T17:37:05.191Z,98968.41
2023-02-22T17:39:31.602Z,98969.97
2023-02-22T17:41:58.317Z,98974.13
2023-02-22T17:44:26.028Z,98969.97
2023-02-22T17:46:53.159Z,98976.94
2023-02-22T17:49:19.569Z,98975.84
2023-02-22T17:51:49.633Z,98980.00
2023-02-22T17:54:17.591Z,98978.25
2023-02-22T17:56:44.569Z,98981.59
2023-02-22T17:59:11.262Z,98980.72
2023-02-22T18:01:38.189Z,98985.13
2023-02-22T18:04:05.256Z,98992.56
2023-02-22T18:06:35.260Z,98984.06
2023-02-22T18:09:08.377Z,98982.84
2023-02-22T18:11:34.787Z,98992.22
2023-02-22T18:14:01.260Z,98985.22
2023-02-22T18:16:27.932Z,98983.44
2023-02-22T18:18:56.346Z,98981.94
2023-02-22T18:21:23.473Z,98978.44
2023-02-22T18:23:49.970Z,98980.31
2023-02-22T18:26:17.959Z,98980.19
2023-02-22T18:28:44.573Z,98975.03
2023-02-22T18:31:15.770Z,98979.13
2023-02-22T18:33:47.873Z,98980.59
2023-02-22T18:36:15.244Z,98986.34
2023-02-22T18:38:43.081Z,98988.22
2023-02-22T18:41:12.481Z,98989.75
2023-02-22T18:43:39.607Z,98985.88
2023-02-22T18:46:15.066Z,98983.84
2023-02-22T18:48:42.015Z,98990.81
2023-02-22T18:51:10.665Z,98985.19
2023-02-22T18:53:40.137Z,98983.34
2023-02-22T18:56:11.925Z,98982.41
2023-02-22T18:58:38.844Z,98982.97
2023-02-22T19:01:06.675Z,98979.31
2023-02-22T19:03:37.868Z,98986.88
2023-02-22T19:06:08.625Z,98979.91
2023-02-22T19:08:39.421Z,98982.38
2023-02-22T19:11:08.613Z,98984.88
2023-02-22T19:13:35.681Z,98982.31
2023-02-22T19:16:03.305Z,98985.28
2023-02-22T19:18:30.630Z,98989.41
2023-02-22T19:21:01.640Z,98982.06
2023-02-22T19:23:28.306Z,98984.03
2023-02-22T19:25:54.889Z,98987.06
2023-02-22T19:28:27.903Z,98985.16
2023-02-22T19:30:54.417Z,98980.03
2023-02-22T19:33:25.923Z,98988.41
2023-02-22T19:35:52.364Z,98985.59
2023-02-22T19:38:19.540Z,98991.34
2023-02-22T19:40:45.919Z,98974.84
2023-02-22T19:43:14.330Z,98977.97
2023-02-22T19:45:40.821Z,98978.66
2023-02-22T19:48:07.297Z,98984.41
2023-02-22T19:50:33.732Z,98987.78
2023-02-22T19:53:00.170Z,98981.50
2023-02-22T19:55:32.085Z,98988.22
2023-02-22T19:57:58.546Z,98984.31
2023-02-22T20:00:25.074Z,98990.25
2023-02-22T20:03:05.480Z,98992.91
2023-02-22T20:05:33.465Z,98983.44
2023-02-22T20:08:00.036Z,98980.00
2023-02-22T20:10:26.528Z,98985.19
2023-02-22T20:12:52.997Z,98986.00
2023-02-22T20:15:19.399Z,98986.88
2023-02-22T20:17:50.315Z,98985.34
2023-02-22T20:20:17.900Z,98989.25
2023-02-22T20:22:45.575Z,98986.00
2023-02-22T20:25:13.624Z,98990.88
2023-02-22T20:27:40.360Z,98992.47
2023-02-22T20:30:09.744Z,98994.38
2023-02-22T20:32:37.808Z,98991.00
2023-02-22T20:35:05.504Z,98990.88
2023-02-22T20:37:33.442Z,98987.81
2023-02-22T20:40:00.345Z,98990.25
2023-02-22T20:42:27.122Z,98985.75
2023-02-22T20:44:54.018Z,98988.56
2023-02-22T20:47:20.987Z,98980.81
2023-02-22T20:49:47.377Z,98982.38
2023-02-22T20:56:01.738Z,98970.22
2023-02-22T20:58:29.150Z,98981.03
2023-02-22T21:00:55.591Z,98978.44
2023-02-22T21:03:22.063Z,98985.31
2023-02-22T21:05:48.499Z,98983.72
2023-02-22T21:08:17.875Z,98986.19
2023-02-22T21:10:46.765Z,98990.00
2023-02-22T21:13:13.516Z,98982.22
2023-02-22T21:15:43.432Z,98983.44
2023-02-22T21:18:11.115Z,98984.41
2023-02-22T21:20:43.114Z,98978.25
2023-02-22T21:23:11.042Z,98977.25
2023-02-22T21:25:38.250Z,98975.81
2023-02-22T21:28:05.104Z,98973.16
2023-02-22T21:30:32.820Z,98976.81
2023-02-22T21:32:59.343Z,98976.38
2023-02-22T21:35:26.132Z,98985.63
2023-02-22T21:37:52.558Z,98978.16
2023-02-22T21:40:19.247Z,98974.56
2023-02-22T21:42:48.153Z,98977.50
2023-02-22T21:45:20.276Z,98977.06
2023-02-22T21:47:48.108Z,98967.16
2023-02-22T21:50:16.528Z,98975.97
2023-02-22T21:52:43.978Z,98962.75
2023-02-22T21:55:10.546Z,98967.59
2023-02-22T21:57:37.713Z,98959.25
2023-02-22T22:00:12.867Z,98963.53
2023-02-22T22:02:39.421Z,98957.69
2023-02-22T22:05:06.131Z,98956.94
2023-02-22T22:07:32.529Z,98969.09
2023-02-22T22:09:58.951Z,98967.19
2023-02-22T22:12:37.427Z,98967.06
2023-02-22T22:15:05.878Z,98963.28
2023-02-22T22:17:32.258Z,98960.91
2023-02-22T22:19:58.691Z,98958.56
2023-02-22T22:22:25.290Z,98949.91
2023-02-22T22:24:53.769Z,98952.44
2023-02-22T22:27:21.182Z,98953.63
2023-02-22T22:29:47.631Z,98962.59
2023-02-22T22:32:14.273Z,98953.44
2023-02-22T22:34:42.462Z,98955.66
2023-02-22T22:37:08.909Z,98955.38
2023-02-22T22:39:35.326Z,98950.06
2023-02-22T22:42:01.815Z,98962.69
2023-02-22T22:44:32.758Z,98952.13
2023-02-22T22:47:00.153Z,98953.69
2023-02-22T22:49:28.371Z,98957.56
2023-02-22T22:51:54.773Z,98951.88
2023-02-22T22:54:21.193Z,98951.47
2023-02-22T22:56:47.574Z,98956.53
2023-02-22T22:59:14.139Z,98953.69
2023-02-22T23:01:44.309Z,98955.44
2023-02-22T23:04:16.048Z,98950.97
2023-02-22T23:06:45.442Z,98955.97
2023-02-22T23:09:21.651Z,98954.34
2023-02-22T23:11:55.308Z,98954.69
2023-02-22T23:14:26.938Z,98954.03
2023-02-22T23:17:00.029Z,98947.31
2023-02-22T23:19:26.476Z,98947.31
2023-02-22T23:21:53.853Z,98951.53
2023-02-22T23:24:21.137Z,98949.50
2023-02-22T23:26:50.832Z,98952.88
2023-02-22T23:29:20.210Z,98953.00
2023-02-22T23:31:48.318Z,98952.97
2023-02-22T23:34:16.900Z,98948.97
2023-02-22T23:36:46.729Z,98946.69
2023-02-22T23:39:14.857Z,98956.06
2023-02-22T23:41:42.424Z,98946.03
2023-02-22T23:44:17.121Z,98942.56
2023-02-22T23:46:47.885Z,98946.16
2023-02-22T23:49:19.914Z,98956.47
2023-02-22T23:51:46.896Z,98954.72
2023-02-22T23:54:15.406Z,98950.47
2023-02-22T23:56:56.176Z,98937.31
2023-02-22T23:59:26.380Z,98945.06
